createdAt,value
2023-05-14T00:02:11.778Z,101578.84
2023-05-14T00:04:38.457Z,101577.16
2023-05-14T00:07:04.924Z,101586.75
2023-05-14T00:09:31.966Z,101576.03
2023-05-14T00:11:58.442Z,101577.78
2023-05-14T00:14:24.760Z,101577.97
2023-05-14T00:16:51.165Z,101578.94
2023-05-14T00:19:18.099Z,101577.38
2023-05-14T00:21:44.490Z,101575.94
2023-05-14T00:24:10.890Z,101583.91
2023-05-14T00:26:37.243Z,101577.06
2023-05-14T00:29:04.209Z,101571.00
2023-05-14T00:31:30.880Z,101573.13
2023-05-14T00:33:57.279Z,101576.72
2023-05-14T00:36:23.657Z,101569.91
2023-05-14T00:38:49.994Z,101576.38
2023-05-14T00:41:16.317Z,101578.16
2023-05-14T00:43:42.687Z,101577.19
2023-05-14T00:46:09.154Z,101571.84
2023-05-14T00:48:35.605Z,101577.34
2023-05-14T00:51:01.977Z,101580.03
2023-05-14T00:53:28.486Z,101576.63
2023-05-14T00:55:54.829Z,101575.88
2023-05-14T00:58:21.197Z,101577.56
2023-05-14T01:00:47.728Z,101567.94
2023-05-14T01:03:14.260Z,101568.03
2023-05-14T01:06:00.902Z,101569.13
2023-05-14T01:08:40.743Z,101564.94
2023-05-14T01:11:08.188Z,101560.69
2023-05-14T01:13:38.906Z,101561.50
2023-05-14T01:16:05.793Z,101567.84
2023-05-14T01:18:32.356Z,101566.06
2023-05-14T01:20:58.728Z,101562.81
2023-05-14T01:23:25.057Z,101563.53
2023-05-14T01:25:51.512Z,101562.72
2023-05-14T01:28:20.919Z,101562.72
2023-05-14T01:30:50.548Z,101562.63
2023-05-14T01:33:18.291Z,101561.09
2023-05-14T01:35:44.750Z,101559.50
2023-05-14T01:38:12.103Z,101556.31
2023-05-14T01:40:38.690Z,101559.94
2023-05-14T01:43:05.213Z,101563.63
2023-05-14T01:45:31.834Z,101562.66
2023-05-14T01:47:58.327Z,101565.22
2023-05-14T01:50:24.885Z,101555.44
2023-05-14T01:52:53.456Z,101553.69
2023-05-14T01:55:19.912Z,101560.59
2023-05-14T01:57:46.252Z,101562.53
2023-05-14T02:00:12.852Z,101563.56
2023-05-14T02:02:39.218Z,101560.09
2023-05-14T02:05:07.065Z,101560.94
2023-05-14T02:07:33.686Z,101557.50
2023-05-14T02:10:00.139Z,101553.09
2023-05-14T02:12:26.699Z,101554.00
2023-05-14T02:14:53.033Z,101557.50
2023-05-14T02:17:19.791Z,101558.28
2023-05-14T02:19:46.287Z,101553.09
2023-05-14T02:22:12.794Z,101553.16
2023-05-14T02:24:39.228Z,101556.78
2023-05-14T02:27:06.279Z,101549.84
2023-05-14T02:29:32.647Z,101549.94
2023-05-14T02:31:59.100Z,101556.22
2023-05-14T02:34:25.977Z,101545.16
2023-05-14T02:36:52.310Z,101545.94
2023-05-14T02:39:18.660Z,101555.75
2023-05-14T02:41:45.023Z,101546.34
2023-05-14T02:44:11.341Z,101550.09
2023-05-14T02:46:37.747Z,101550.50
2023-05-14T02:49:04.133Z,101548.97
2023-05-14T02:51:30.519Z,101547.69
2023-05-14T02:53:56.893Z,101547.97
2023-05-14T02:56:23.226Z,101539.19
2023-05-14T02:58:49.581Z,101544.44
2023-05-14T03:01:16.347Z,101538.50
2023-05-14T03:03:43.372Z,101535.97
2023-05-14T03:06:10.290Z,101538.78
2023-05-14T03:08:36.708Z,101542.16
2023-05-14T03:11:03.149Z,101537.63
2023-05-14T03:13:29.518Z,101530.59
2023-05-14T03:15:56.905Z,101531.50
2023-05-14T03:18:23.308Z,101533.47
2023-05-14T03:20:49.658Z,101529.22
2023-05-14T03:23:16.013Z,101525.81
2023-05-14T03:25:42.340Z,101527.56
2023-05-14T03:28:08.825Z,101537.25
2023-05-14T03:30:35.397Z,101533.72
2023-05-14T03:33:01.896Z,101530.94
2023-05-14T03:35:28.304Z,101536.91
2023-05-14T03:37:54.768Z,101539.41
2023-05-14T03:40:21.518Z,101539.28
2023-05-14T03:42:48.115Z,101533.06
2023-05-14T03:45:14.540Z,101530.44
2023-05-14T03:47:41.430Z,101527.72
2023-05-14T03:50:08.495Z,101534.53
2023-05-14T03:52:34.886Z,101535.28
2023-05-14T03:55:01.216Z,101533.50
2023-05-14T03:57:28.761Z,101534.06
2023-05-14T03:59:55.093Z,101525.06
2023-05-14T04:02:21.501Z,101531.81
2023-05-14T04:04:47.954Z,101523.69
2023-05-14T04:07:14.424Z,101518.19
2023-05-14T04:09:40.836Z,101526.78
2023-05-14T04:12:07.538Z,101522.34
2023-05-14T04:14:33.899Z,101518.84
2023-05-14T04:17:00.643Z,101517.94
2023-05-14T04:19:27.064Z,101520.22
2023-05-14T04:21:53.435Z,101518.19
2023-05-14T04:24:19.743Z,101514.44
2023-05-14T04:26:46.098Z,101514.25
2023-05-14T04:29:12.487Z,101511.28
2023-05-14T04:31:39.662Z,101508.28
2023-05-14T04:34:06.064Z,101514.22
2023-05-14T04:36:32.474Z,101504.25
2023-05-14T04:38:58.837Z,101502.19
2023-05-14T04:41:25.334Z,101506.22
2023-05-14T04:43:51.752Z,101509.34
2023-05-14T04:46:18.212Z,101502.94
2023-05-14T04:48:44.609Z,101509.50
2023-05-14T04:51:10.985Z,101507.19
2023-05-14T04:53:37.330Z,101507.59
2023-05-14T04:56:03.673Z,101502.06
2023-05-14T04:58:34.545Z,101510.25
2023-05-14T05:01:02.744Z,101506.34
2023-05-14T05:03:29.491Z,101510.41
2023-05-14T05:05:55.934Z,101508.22
2023-05-14T05:08:22.323Z,101501.47
2023-05-14T05:10:48.687Z,101499.31
2023-05-14T05:13:16.971Z,101497.03
2023-05-14T05:15:43.669Z,101493.09
2023-05-14T05:18:10.152Z,101493.34
2023-05-14T05:20:36.542Z,101487.75
2023-05-14T05:23:03.220Z,101484.56
2023-05-14T05:25:29.678Z,101491.03
2023-05-14T05:27:56.164Z,101492.28
2023-05-14T05:30:22.808Z,101490.88
2023-05-14T05:32:49.378Z,101489.47
2023-05-14T05:35:15.786Z,101482.56
2023-05-14T05:37:42.998Z,101488.38
2023-05-14T05:40:10.215Z,101485.09
2023-05-14T05:42:36.614Z,101486.25
2023-05-14T05:45:03.078Z,101480.16
2023-05-14T05:47:30.118Z,101481.06
2023-05-14T05:49:56.958Z,101480.25
2023-05-14T05:52:23.306Z,101482.69
2023-05-14T05:54:49.631Z,101477.75
2023-05-14T05:57:16.049Z,101477.53
2023-05-14T05:59:42.382Z,101479.50
2023-05-14T06:02:08.831Z,101479.88
2023-05-14T06:04:35.271Z,101475.03
2023-05-14T06:07:01.612Z,101484.09
2023-05-14T06:09:27.938Z,101484.84
2023-05-14T06:11:54.361Z,101486.38
2023-05-14T06:14:20.689Z,101481.50
2023-05-14T06:16:47.103Z,101479.44
2023-05-14T06:19:13.710Z,101477.38
2023-05-14T06:21:40.302Z,101473.44
2023-05-14T06:24:06.792Z,101476.88
2023-05-14T06:26:33.237Z,101481.13
2023-05-14T06:28:59.617Z,101477.88
2023-05-14T06:31:26.320Z,101478.75
2023-05-14T06:33:52.716Z,101488.41
2023-05-14T06:36:19.059Z,101480.47
2023-05-14T06:38:45.418Z,101477.28
2023-05-14T06:41:12.090Z,101482.09
2023-05-14T06:43:38.456Z,101480.59
2023-05-14T06:46:04.817Z,101473.16
2023-05-14T06:48:31.244Z,101474.25
2023-05-14T06:50:57.702Z,101460.81
2023-05-14T06:53:24.071Z,101469.00
2023-05-14T06:55:50.889Z,101471.34
2023-05-14T06:58:17.270Z,101476.88
2023-05-14T07:00:43.682Z,101472.66
2023-05-14T07:03:10.143Z,101466.44
2023-05-14T07:05:37.825Z,101470.63
2023-05-14T07:08:04.210Z,101471.13
2023-05-14T07:10:30.957Z,101468.88
2023-05-14T07:12:57.346Z,101460.13
2023-05-14T07:15:23.716Z,101461.00
2023-05-14T07:17:50.196Z,101462.44
2023-05-14T07:20:16.605Z,101463.94
2023-05-14T07:22:43.020Z,101468.22
2023-05-14T07:25:09.550Z,101466.84
2023-05-14T07:27:35.927Z,101472.50
2023-05-14T07:30:02.321Z,101463.69
2023-05-14T07:32:28.747Z,101457.47
2023-05-14T07:34:55.096Z,101461.69
2023-05-14T07:37:24.115Z,101451.78
2023-05-14T07:39:50.863Z,101451.78
2023-05-14T07:42:28.359Z,101445.72
2023-05-14T07:45:01.410Z,101447.97
2023-05-14T07:47:27.849Z,101448.97
2023-05-14T07:49:54.635Z,101446.44
2023-05-14T07:52:21.041Z,101435.72
2023-05-14T07:54:48.867Z,101436.91
2023-05-14T07:57:16.417Z,101437.34
2023-05-14T07:59:42.831Z,101441.50
2023-05-14T08:02:10.648Z,101433.13
2023-05-14T08:04:37.126Z,101434.56
2023-05-14T08:07:04.389Z,101432.84
2023-05-14T08:09:30.731Z,101431.03
2023-05-14T08:11:57.585Z,101423.06
2023-05-14T08:14:24.040Z,101426.88
2023-05-14T08:16:50.488Z,101423.38
2023-05-14T08:19:16.971Z,101425.75
2023-05-14T08:21:43.543Z,101421.38
2023-05-14T08:24:09.984Z,101417.97
2023-05-14T08:26:36.352Z,101420.75
2023-05-14T08:29:02.693Z,101421.06
2023-05-14T08:31:29.272Z,101426.25
2023-05-14T08:33:55.793Z,101428.94
2023-05-14T08:36:25.076Z,101424.53
2023-05-14T08:38:51.497Z,101420.72
2023-05-14T08:41:17.862Z,101414.41
2023-05-14T08:43:48.157Z,101405.47
2023-05-14T08:46:15.238Z,101408.91
2023-05-14T08:48:42.349Z,101398.72
2023-05-14T08:51:09.136Z,101398.22
2023-05-14T08:53:35.669Z,101409.19
2023-05-14T08:56:02.309Z,101392.63
2023-05-14T08:58:28.916Z,101394.28
2023-05-14T09:00:56.258Z,101385.69
2023-05-14T09:03:23.171Z,101387.44
2023-05-14T09:05:49.680Z,101396.03
2023-05-14T09:08:15.993Z,101389.50
2023-05-14T09:10:42.461Z,101384.16
2023-05-14T09:13:10.146Z,101391.03
2023-05-14T09:15:37.210Z,101374.53
2023-05-14T09:18:07.048Z,101383.41
2023-05-14T09:20:33.490Z,101379.38
2023-05-14T09:23:02.818Z,101370.22
2023-05-14T09:25:32.248Z,101368.91
2023-05-14T09:27:59.034Z,101368.56
2023-05-14T09:30:26.549Z,101367.59
2023-05-14T09:32:53.662Z,101358.22
2023-05-14T09:35:22.462Z,101364.78
2023-05-14T09:37:52.831Z,101357.25
2023-05-14T09:40:20.721Z,101354.47
2023-05-14T09:42:48.296Z,101365.13
2023-05-14T09:45:15.098Z,101353.34
2023-05-14T09:47:41.714Z,101345.69
2023-05-14T09:50:08.477Z,101351.34
2023-05-14T09:52:35.088Z,101342.81
2023-05-14T09:55:01.621Z,101338.75
2023-05-14T09:57:28.253Z,101326.44
2023-05-14T09:59:54.608Z,101327.69
2023-05-14T10:02:25.130Z,101324.13
2023-05-14T10:04:53.166Z,101325.44
2023-05-14T10:07:23.112Z,101319.91
2023-05-14T10:09:50.451Z,101319.91
2023-05-14T10:12:16.947Z,101315.38
2023-05-14T10:14:44.720Z,101315.34
2023-05-14T10:17:18.506Z,101316.78
2023-05-14T10:19:49.908Z,101307.31
2023-05-14T10:22:18.672Z,101304.63
2023-05-14T10:24:46.022Z,101293.50
2023-05-14T10:27:12.373Z,101302.28
2023-05-14T10:29:38.805Z,101294.53
2023-05-14T10:32:07.905Z,101292.25
2023-05-14T10:34:37.541Z,101281.06
2023-05-14T10:37:22.869Z,101290.13
2023-05-14T10:39:53.720Z,101298.50
2023-05-14T10:42:23.242Z,101286.03
2023-05-14T10:44:49.611Z,101292.41
2023-05-14T10:47:17.073Z,101285.41
2023-05-14T10:49:44.168Z,101278.78
2023-05-14T10:52:10.836Z,101278.75
2023-05-14T10:54:37.175Z,101269.50
2023-05-14T10:57:03.755Z,101269.56
2023-05-14T10:59:30.151Z,101269.66
2023-05-14T11:01:59.377Z,101270.34
2023-05-14T11:04:26.772Z,101256.25
2023-05-14T11:06:53.116Z,101254.84
2023-05-14T11:09:19.425Z,101260.72
2023-05-14T11:11:47.663Z,101264.75
2023-05-14T11:14:14.051Z,101269.66
2023-05-14T11:16:41.402Z,101274.81
2023-05-14T11:19:07.890Z,101272.66
2023-05-14T11:21:34.400Z,101267.78
2023-05-14T11:24:00.966Z,101265.66
2023-05-14T11:26:27.341Z,101258.59
2023-05-14T11:28:53.698Z,101258.50
2023-05-14T11:31:21.488Z,101255.09
2023-05-14T11:33:47.887Z,101253.06
2023-05-14T11:36:14.725Z,101246.75
2023-05-14T11:38:48.814Z,101245.63
2023-05-14T11:41:16.039Z,101240.47
2023-05-14T11:43:42.516Z,101240.66
2023-05-14T11:46:08.934Z,101236.69
2023-05-14T11:48:35.525Z,101231.03
2023-05-14T11:51:01.905Z,101239.34
2023-05-14T11:53:29.349Z,101230.44
2023-05-14T11:55:57.731Z,101216.19
2023-05-14T11:58:24.196Z,101223.91
2023-05-14T12:00:50.843Z,101224.94
2023-05-14T12:03:23.503Z,101227.13
2023-05-14T12:05:58.226Z,101226.56
2023-05-14T12:08:27.606Z,101213.88
2023-05-14T12:10:54.017Z,101215.56
2023-05-14T12:13:20.463Z,101214.69
2023-05-14T12:15:56.947Z,101222.97
2023-05-14T12:18:30.360Z,101230.56
2023-05-14T12:21:00.214Z,101223.94
2023-05-14T12:23:27.178Z,101212.75
2023-05-14T12:25:53.559Z,101213.25
2023-05-14T12:28:20.186Z,101200.25
2023-05-14T12:30:47.234Z,101202.44
2023-05-14T12:33:14.733Z,101192.19
2023-05-14T12:35:41.178Z,101177.88
2023-05-14T12:38:07.870Z,101187.44
2023-05-14T12:40:34.248Z,101182.84
2023-05-14T12:43:00.616Z,101183.75
2023-05-14T12:45:26.953Z,101190.56
2023-05-14T12:47:53.396Z,101185.09
2023-05-14T12:50:20.385Z,101179.56
2023-05-14T12:52:46.775Z,101180.19
2023-05-14T12:55:13.156Z,101173.56
2023-05-14T12:57:39.671Z,101180.31
2023-05-14T13:00:07.894Z,101176.72
2023-05-14T13:02:42.685Z,101178.09
2023-05-14T13:05:09.948Z,101164.72
2023-05-14T13:07:36.415Z,101170.44
2023-05-14T13:10:05.495Z,101163.03
2023-05-14T13:12:32.253Z,101165.56
2023-05-14T13:14:58.688Z,101161.16
2023-05-14T13:17:25.034Z,101163.19
2023-05-14T13:19:51.436Z,101175.97
2023-05-14T13:22:18.883Z,101175.44
2023-05-14T13:24:46.285Z,101183.88
2023-05-14T13:27:12.719Z,101167.75
2023-05-14T13:29:39.179Z,101162.84
2023-05-14T13:32:05.713Z,101156.16
2023-05-14T13:34:32.063Z,101160.63
2023-05-14T13:36:58.477Z,101155.94
2023-05-14T13:39:27.074Z,101162.53
2023-05-14T13:41:57.003Z,101155.75
2023-05-14T13:44:23.555Z,101152.13
2023-05-14T13:46:50.016Z,101141.66
2023-05-14T13:49:16.404Z,101141.22
2023-05-14T13:51:42.755Z,101132.25
2023-05-14T13:54:09.092Z,101130.94
2023-05-14T13:56:35.554Z,101119.53
2023-05-14T13:59:01.993Z,101122.09
2023-05-14T14:01:30.635Z,101123.03
2023-05-14T14:03:57.119Z,101126.56
2023-05-14T14:06:23.531Z,101125.97
2023-05-14T14:08:49.874Z,101117.88
2023-05-14T14:11:16.936Z,101111.97
2023-05-14T14:13:45.196Z,101106.13
2023-05-14T14:16:12.863Z,101102.38
2023-05-14T14:18:39.390Z,101106.41
2023-05-14T14:21:06.224Z,101099.44
2023-05-14T14:23:32.622Z,101090.31
2023-05-14T14:25:59.127Z,101088.72
2023-05-14T14:28:25.710Z,101087.75
2023-05-14T14:30:52.132Z,101083.25
2023-05-14T14:33:18.487Z,101083.50
2023-05-14T14:35:44.976Z,101078.63
2023-05-14T14:38:11.303Z,101069.63
2023-05-14T14:40:37.677Z,101080.69
2023-05-14T14:43:04.083Z,101071.09
2023-05-14T14:45:30.573Z,101069.28
2023-05-14T14:48:15.585Z,101079.25
2023-05-14T14:50:41.967Z,101063.66
2023-05-14T14:53:08.373Z,101054.66
2023-05-14T14:55:34.760Z,101059.63
2023-05-14T14:58:01.099Z,101051.50
2023-05-14T15:00:27.455Z,101059.03
2023-05-14T15:02:53.947Z,101053.09
2023-05-14T15:05:20.283Z,101040.56
2023-05-14T15:07:46.661Z,101052.22
2023-05-14T15:10:13.133Z,101044.31
2023-05-14T15:12:39.478Z,101044.69
2023-05-14T15:15:06.782Z,101041.91
2023-05-14T15:17:33.273Z,101041.16
2023-05-14T15:19:59.630Z,101039.69
2023-05-14T15:22:25.965Z,101029.47
2023-05-14T15:24:52.468Z,101026.91
2023-05-14T15:27:18.800Z,101024.63
2023-05-14T15:29:45.442Z,101017.19
2023-05-14T15:32:11.791Z,101019.84
2023-05-14T15:34:38.146Z,101017.66
2023-05-14T15:37:04.533Z,101016.59
2023-05-14T15:39:31.553Z,101017.66
2023-05-14T15:41:57.879Z,101007.97
2023-05-14T15:44:24.216Z,101011.13
2023-05-14T15:46:50.758Z,101006.25
2023-05-14T15:49:17.372Z,101000.44
2023-05-14T15:51:43.705Z,100994.09
2023-05-14T15:54:10.248Z,100991.28
2023-05-14T15:56:36.704Z,100987.88
2023-05-14T15:59:03.218Z,100985.94
2023-05-14T16:01:29.659Z,100987.66
2023-05-14T16:03:56.230Z,100984.63
2023-05-14T16:06:22.917Z,100975.63
2023-05-14T16:08:49.741Z,100977.94
2023-05-14T16:11:16.079Z,100973.00
2023-05-14T16:13:42.573Z,100977.75
2023-05-14T16:16:09.055Z,100964.50
2023-05-14T16:18:35.605Z,100963.75
2023-05-14T16:21:02.052Z,100959.53
2023-05-14T16:23:28.504Z,100954.88
2023-05-14T16:25:54.834Z,100955.84
2023-05-14T16:28:21.263Z,100947.44
2023-05-14T16:30:47.637Z,100947.81
2023-05-14T16:33:14.072Z,100948.94
2023-05-14T16:35:40.453Z,100940.44
2023-05-14T16:38:06.833Z,100948.81
2023-05-14T16:40:33.210Z,100945.53
2023-05-14T16:43:01.419Z,100941.13
2023-05-14T16:45:27.980Z,100940.28
2023-05-14T16:47:54.343Z,100949.84
2023-05-14T16:50:20.963Z,100947.78
2023-05-14T16:52:47.348Z,100943.91
2023-05-14T16:55:13.695Z,100943.78
2023-05-14T16:57:40.051Z,100942.31
2023-05-14T17:00:06.705Z,100946.66
2023-05-14T17:02:33.664Z,100939.19
2023-05-14T17:05:00.310Z,100942.84
2023-05-14T17:07:26.804Z,100943.09
2023-05-14T17:09:53.187Z,100944.53
2023-05-14T17:12:21.612Z,100945.00
2023-05-14T17:14:48.487Z,100943.97
2023-05-14T17:17:14.825Z,100939.31
2023-05-14T17:19:41.249Z,100936.38
2023-05-14T17:22:07.684Z,100944.38
2023-05-14T17:24:35.417Z,100940.34
2023-05-14T17:27:01.774Z,100948.81
2023-05-14T17:29:28.144Z,100935.81
2023-05-14T17:31:54.665Z,100931.78
2023-05-14T17:34:21.126Z,100936.81
2023-05-14T17:36:47.516Z,100933.19
2023-05-14T17:39:13.896Z,100938.25
2023-05-14T17:41:42.015Z,100938.44
2023-05-14T17:44:09.804Z,100944.00
2023-05-14T17:46:37.058Z,100938.34
2023-05-14T17:49:03.530Z,100944.97
2023-05-14T17:51:29.992Z,100938.28
2023-05-14T17:53:56.303Z,100933.16
2023-05-14T17:56:24.949Z,100938.22
2023-05-14T17:58:51.364Z,100941.50
2023-05-14T18:01:17.779Z,100935.41
2023-05-14T18:03:44.300Z,100938.00
2023-05-14T18:06:10.841Z,100935.44
2023-05-14T18:08:37.197Z,100937.47
2023-05-14T18:11:03.639Z,100932.47
2023-05-14T18:13:30.039Z,100932.78
2023-05-14T18:15:56.524Z,100938.00
2023-05-14T18:18:23.929Z,100936.97
2023-05-14T18:20:51.948Z,100927.38
2023-05-14T18:23:18.433Z,100931.84
2023-05-14T18:25:44.853Z,100935.84
2023-05-14T18:28:11.303Z,100933.72
2023-05-14T18:30:37.666Z,100935.84
2023-05-14T18:33:04.056Z,100932.03
2023-05-14T18:35:30.861Z,100927.50
2023-05-14T18:37:57.213Z,100926.09
2023-05-14T18:40:23.531Z,100931.13
2023-05-14T18:42:49.959Z,100937.41
2023-05-14T18:45:16.414Z,100937.28
2023-05-14T18:47:42.862Z,100935.88
2023-05-14T18:50:09.389Z,100924.69
2023-05-14T18:52:35.821Z,100927.75
2023-05-14T18:55:02.172Z,100930.78
2023-05-14T18:57:34.669Z,100933.34
2023-05-14T19:00:05.117Z,100921.31
2023-05-14T19:02:31.608Z,100916.19
2023-05-14T19:04:58.067Z,100920.47
2023-05-14T19:07:24.521Z,100921.91
2023-05-14T19:09:51.358Z,100918.78
2023-05-14T19:12:17.718Z,100919.50
2023-05-14T19:14:44.039Z,100910.59
2023-05-14T19:17:10.919Z,100905.97
2023-05-14T19:19:37.813Z,100913.84
2023-05-14T19:22:04.250Z,100903.00
2023-05-14T19:24:30.612Z,100903.31
2023-05-14T19:26:56.970Z,100896.38
2023-05-14T19:29:24.939Z,100897.72
2023-05-14T19:31:51.337Z,100894.56
2023-05-14T19:34:17.730Z,100894.88
2023-05-14T19:36:46.581Z,100899.78
2023-05-14T19:39:13.050Z,100899.16
2023-05-14T19:41:39.496Z,100891.09
2023-05-14T19:44:06.020Z,100888.78
2023-05-14T19:46:33.028Z,100887.06
2023-05-14T19:48:59.947Z,100886.22
2023-05-14T19:51:28.692Z,100889.31
2023-05-14T19:53:58.406Z,100886.19
2023-05-14T19:56:26.539Z,100887.25
2023-05-14T19:58:54.519Z,100889.31
2023-05-14T20:01:20.984Z,100890.25
2023-05-14T20:03:47.996Z,100887.78
2023-05-14T20:06:15.374Z,100885.13
2023-05-14T20:08:41.803Z,100879.06
2023-05-14T20:11:11.016Z,100872.53
2023-05-14T20:13:38.434Z,100875.19
2023-05-14T20:16:04.924Z,100874.78
2023-05-14T20:18:33.840Z,100868.91
2023-05-14T20:21:01.007Z,100867.72
2023-05-14T20:23:27.429Z,100872.06
2023-05-14T20:25:53.838Z,100869.63
2023-05-14T20:28:20.478Z,100881.53
2023-05-14T20:30:47.216Z,100871.53
2023-05-14T20:33:16.392Z,100881.28
2023-05-14T20:35:47.438Z,100882.06
2023-05-14T20:38:19.344Z,100876.84
2023-05-14T20:40:46.569Z,100873.25
2023-05-14T20:43:14.354Z,100873.69
2023-05-14T20:45:41.166Z,100877.31
2023-05-14T20:48:10.042Z,100870.81
2023-05-14T20:50:36.714Z,100869.22
2023-05-14T20:53:03.991Z,100864.31
2023-05-14T20:55:30.553Z,100865.25
2023-05-14T20:57:56.962Z,100854.06
2023-05-14T21:00:23.434Z,100860.28
2023-05-14T21:02:50.742Z,100862.09
2023-05-14T21:05:17.397Z,100853.94
2023-05-14T21:07:43.996Z,100850.44
2023-05-14T21:10:10.608Z,100838.22
2023-05-14T21:12:37.032Z,100847.38
2023-05-14T21:15:03.576Z,100846.28
2023-05-14T21:17:30.148Z,100845.44
2023-05-14T21:19:56.838Z,100842.88
2023-05-14T21:22:23.415Z,100835.06
2023-05-14T21:24:50.124Z,100842.50
2023-05-14T21:27:16.506Z,100834.75
2023-05-14T21:29:44.816Z,100837.22
2023-05-14T21:32:11.210Z,100839.47
2023-05-14T21:34:37.523Z,100834.50
2023-05-14T21:37:03.958Z,100831.94
2023-05-14T21:39:30.322Z,100832.19
2023-05-14T21:41:56.653Z,100833.22
2023-05-14T21:44:23.021Z,100829.03
2023-05-14T21:46:49.354Z,100815.94
2023-05-14T21:49:15.667Z,100814.06
2023-05-14T21:51:42.850Z,100815.28
2023-05-14T21:54:09.592Z,100814.31
2023-05-14T21:56:36.403Z,100813.22
2023-05-14T21:59:03.010Z,100819.44
2023-05-14T22:01:29.417Z,100818.50
2023-05-14T22:03:57.734Z,100813.03
2023-05-14T22:06:24.438Z,100812.16
2023-05-14T22:08:50.762Z,100800.69
2023-05-14T22:11:22.770Z,100802.34
2023-05-14T22:13:49.936Z,100795.25
2023-05-14T22:16:16.465Z,100795.84
2023-05-14T22:18:43.082Z,100796.91
2023-05-14T22:21:09.506Z,100792.41
2023-05-14T22:23:36.162Z,100787.47
2023-05-14T22:26:02.494Z,100799.03
2023-05-14T22:28:28.858Z,100799.09
2023-05-14T22:30:56.443Z,100799.56
2023-05-14T22:33:22.926Z,100793.53
2023-05-14T22:35:49.272Z,100794.53
2023-05-14T22:38:15.882Z,100792.78
2023-05-14T22:40:42.227Z,100795.44
2023-05-14T22:43:08.717Z,100790.03
2023-05-14T22:45:35.067Z,100785.66
2023-05-14T22:48:01.596Z,100786.81
2023-05-14T22:50:28.147Z,100776.47
2023-05-14T22:52:54.483Z,100781.09
2023-05-14T22:55:21.172Z,100776.78
2023-05-14T22:57:47.589Z,100776.53
2023-05-14T23:00:14.495Z,100769.50
2023-05-14T23:02:41.028Z,100766.88
2023-05-14T23:05:10.262Z,100766.00
2023-05-14T23:07:36.622Z,100767.13
2023-05-14T23:10:02.987Z,100755.53
2023-05-14T23:12:29.357Z,100759.00
2023-05-14T23:14:55.797Z,100753.72
2023-05-14T23:17:22.231Z,100749.22
2023-05-14T23:19:48.673Z,100744.50
2023-05-14T23:22:15.165Z,100747.16
2023-05-14T23:24:41.548Z,100738.47
2023-05-14T23:27:07.912Z,100739.34
2023-05-14T23:29:34.290Z,100733.94
2023-05-14T23:32:00.737Z,100729.41
2023-05-14T23:34:27.190Z,100731.47
2023-05-14T23:36:53.545Z,100727.63
2023-05-14T23:39:19.866Z,100725.13
2023-05-14T23:41:46.279Z,100721.63
2023-05-14T23:44:12.725Z,100720.72
2023-05-14T23:46:39.080Z,100713.63
2023-05-14T23:49:05.784Z,100711.22
2023-05-14T23:51:32.236Z,100711.22
2023-05-14T23:53:58.842Z,100700.91
2023-05-14T23:56:26.159Z,100697.41
2023-05-14T23:58:52.592Z,100700.38
